NO-0040 weather

Veum Airstrip
Fredrikstad, Østfold, Norway

Public forecast

Using degrees Celsius for public forecast. Weather courtesy of forecast.io.

Closest aviation weather report (METAR) to Veum Airstrip

Closest report is Moss Airport, Rygge, 8.4 nm (15.6 km) NNW. Retrieved 2019/11/17 18:20 UTC (35 minutes ago):

ENRY 171820Z AUTO 05002KT 9999NDV OVC017/// 02/01 Q1017

Closest aviation forecast (TAF) to Veum Airstrip

Closest forecast is Moss Airport, Rygge, 8.4 nm (15.6 km) NNW. Retrieved 2019/11/17 18:57 UTC (0 seconds ago):

TAF ENRY 171700Z 1718/1818 VRB05KT 9999 OVC015 PROB40 1718/1806 0300 FZFG VV001 BECMG 1800/1802 02010KT TEMPO 1806/1812 RA TEMPO 1812/1818 2000 -RA BR OVC002